ZSSAS YSSY-YSSY
Flight info
| Callsign | ZSSAS |
|---|---|
| Flight time | 0h 13m |
| Altitude | 5000 |
| Route | VFR CIRCUITS |
| Aircraft | P28A/L-VGD/A |
Departure
| Time | 2026-04-21 10:05 |
|---|---|
| Airport | Sydney Kingsford Smith International Airport (YSSY) |
Arrival
| Time | 2026-04-21 10:18 |
|---|---|
| Airport | Sydney Kingsford Smith International Airport (YSSY) |
| Time | Latitude | Longitude | Altitude | Speed | Heading |
|---|---|---|---|---|---|
| 2026-04-21 09:47 | -33.94338 | 151.18008 | 15 ft | 0 kts | 197° |
| 2026-04-21 09:52 | -33.94338 | 151.17989 | 15 ft | 5 kts | 317° |
| 2026-04-21 09:53 | -33.94305 | 151.17967 | 14 ft | 5 kts | 317° |
| 2026-04-21 09:53 | -33.94289 | 151.17918 | 13 ft | 6 kts | 261° |
| 2026-04-21 09:53 | -33.94301 | 151.17894 | 13 ft | 3 kts | 204° |
| 2026-04-21 09:53 | -33.94317 | 151.17889 | 14 ft | 0 kts | 187° |
| 2026-04-21 09:54 | -33.94333 | 151.17891 | 14 ft | 3 kts | 169° |
| 2026-04-21 09:54 | -33.94359 | 151.17897 | 15 ft | 8 kts | 165° |
| 2026-04-21 09:54 | -33.94456 | 151.17908 | 18 ft | 19 kts | 198° |
| 2026-04-21 09:54 | -33.94568 | 151.17892 | 19 ft | 14 kts | 166° |
| 2026-04-21 09:55 | -33.94687 | 151.17926 | 20 ft | 20 kts | 168° |
| 2026-04-21 09:55 | -33.94826 | 151.17960 | 20 ft | 19 kts | 168° |
| 2026-04-21 09:55 | -33.94946 | 151.17992 | 19 ft | 15 kts | 167° |
| 2026-04-21 09:55 | -33.95038 | 151.18016 | 17 ft | 7 kts | 167° |
| 2026-04-21 09:56 | -33.95088 | 151.18039 | 15 ft | 9 kts | 139° |
| 2026-04-21 09:56 | -33.95103 | 151.18105 | 14 ft | 10 kts | 79° |
| 2026-04-21 09:56 | -33.95085 | 151.18201 | 14 ft | 10 kts | 76° |
| 2026-04-21 09:56 | -33.95070 | 151.18280 | 13 ft | 10 kts | 76° |
| 2026-04-21 09:57 | -33.95042 | 151.18417 | 12 ft | 19 kts | 80° |
| 2026-04-21 09:57 | -33.95021 | 151.18544 | 11 ft | 12 kts | 79° |
| 2026-04-21 09:57 | -33.95003 | 151.18655 | 9 ft | 6 kts | 79° |
| 2026-04-21 09:57 | -33.95001 | 151.18669 | 8 ft | 0 kts | 79° |
| 2026-04-21 09:58 | -33.95000 | 151.18678 | 8 ft | 3 kts | 78° |
| 2026-04-21 09:58 | -33.94998 | 151.18687 | 8 ft | 0 kts | 79° |
| 2026-04-21 09:58 | -33.94997 | 151.18690 | 8 ft | 0 kts | 79° |
| 2026-04-21 09:59 | -33.94997 | 151.18695 | 8 ft | 0 kts | 79° |
| 2026-04-21 09:59 | -33.94997 | 151.18697 | 8 ft | 0 kts | 79° |
| 2026-04-21 09:59 | -33.94997 | 151.18698 | 8 ft | 0 kts | 79° |
| 2026-04-21 10:03 | -33.94993 | 151.18718 | 8 ft | 10 kts | 77° |
| 2026-04-21 10:03 | -33.95019 | 151.18840 | 8 ft | 20 kts | 147° |
| 2026-04-21 10:03 | -33.95271 | 151.18910 | 7 ft | 59 kts | 168° |
| 2026-04-21 10:03 | -33.95786 | 151.19045 | 14 ft | 88 kts | 168° |
| 2026-04-21 10:04 | -33.96442 | 151.19211 | 67 ft | 101 kts | 167° |
| 2026-04-21 10:04 | -33.97131 | 151.19415 | 189 ft | 104 kts | 165° |
| 2026-04-21 10:04 | -33.97836 | 151.19635 | 361 ft | 101 kts | 165° |
| 2026-04-21 10:04 | -33.98490 | 151.19934 | 508 ft | 101 kts | 151° |
| 2026-04-21 10:05 | -33.99014 | 151.20493 | 633 ft | 104 kts | 126° |
| 2026-04-21 10:05 | -33.99292 | 151.21286 | 794 ft | 101 kts | 97° |
| 2026-04-21 10:05 | -33.99188 | 151.22133 | 881 ft | 107 kts | 63° |
| 2026-04-21 10:05 | -33.98650 | 151.22733 | 968 ft | 108 kts | 28° |
| 2026-04-21 10:06 | -33.97926 | 151.22969 | 996 ft | 106 kts | 0° |
| 2026-04-21 10:06 | -33.97196 | 151.22925 | 981 ft | 106 kts | 356° |
| 2026-04-21 10:06 | -33.96462 | 151.22879 | 970 ft | 105 kts | 358° |
| 2026-04-21 10:06 | -33.95741 | 151.22847 | 979 ft | 102 kts | 358° |
| 2026-04-21 10:07 | -33.95038 | 151.22807 | 967 ft | 102 kts | 356° |
| 2026-04-21 10:07 | -33.94427 | 151.22737 | 947 ft | 103 kts | 355° |
| 2026-04-21 10:07 | -33.93678 | 151.22705 | 946 ft | 101 kts | 358° |
| 2026-04-21 10:07 | -33.92977 | 151.22620 | 915 ft | 101 kts | 346° |
| 2026-04-21 10:08 | -33.92483 | 151.22087 | 815 ft | 101 kts | 288° |
| 2026-04-21 10:08 | -33.92334 | 151.21283 | 764 ft | 96 kts | 281° |
| 2026-04-21 10:08 | -33.92295 | 151.20489 | 684 ft | 95 kts | 262° |
| 2026-04-21 10:08 | -33.92574 | 151.19781 | 610 ft | 95 kts | 227° |
| 2026-04-21 10:09 | -33.93085 | 151.19255 | 526 ft | 96 kts | 216° |
| 2026-04-21 10:09 | -33.93675 | 151.18861 | 433 ft | 94 kts | 200° |
| 2026-04-21 10:09 | -33.94284 | 151.18715 | 268 ft | 88 kts | 181° |
| 2026-04-21 10:09 | -33.94893 | 151.18814 | 93 ft | 86 kts | 166° |
| 2026-04-21 10:10 | -33.95443 | 151.18959 | 7 ft | 73 kts | 168° |
| 2026-04-21 10:10 | -33.95956 | 151.19089 | 5 ft | 87 kts | 168° |
| 2026-04-21 10:10 | -33.96580 | 151.19264 | 114 ft | 93 kts | 166° |
| 2026-04-21 10:10 | -33.97230 | 151.19481 | 221 ft | 99 kts | 163° |
| 2026-04-21 10:11 | -33.97879 | 151.19733 | 401 ft | 97 kts | 162° |
| 2026-04-21 10:11 | -33.98476 | 151.20084 | 552 ft | 97 kts | 140° |
| 2026-04-21 10:11 | -33.98830 | 151.20756 | 718 ft | 94 kts | 105° |
| 2026-04-21 10:11 | -33.98878 | 151.21545 | 850 ft | 96 kts | 83° |
| 2026-04-21 10:12 | -33.98646 | 151.22287 | 970 ft | 95 kts | 58° |
| 2026-04-21 10:12 | -33.98174 | 151.22858 | 1008 ft | 97 kts | 34° |
| 2026-04-21 10:12 | -33.97528 | 151.23151 | 992 ft | 101 kts | 6° |
| 2026-04-21 10:12 | -33.96827 | 151.23140 | 1030 ft | 99 kts | 356° |
| 2026-04-21 10:13 | -33.96140 | 151.23070 | 1069 ft | 97 kts | 353° |
| 2026-04-21 10:13 | -33.95470 | 151.22954 | 1102 ft | 99 kts | 350° |
| 2026-04-21 10:13 | -33.94776 | 151.22803 | 1133 ft | 102 kts | 349° |
| 2026-04-21 10:13 | -33.94070 | 151.22632 | 1142 ft | 103 kts | 349° |
| 2026-04-21 10:14 | -33.93381 | 151.22473 | 1157 ft | 98 kts | 349° |
| 2026-04-21 10:14 | -33.92721 | 151.22325 | 1091 ft | 97 kts | 351° |
| 2026-04-21 10:14 | -33.92081 | 151.22220 | 1063 ft | 92 kts | 354° |
| 2026-04-21 10:14 | -33.91445 | 151.22136 | 1010 ft | 90 kts | 354° |
| 2026-04-21 10:15 | -33.90831 | 151.22037 | 948 ft | 89 kts | 345° |
| 2026-04-21 10:15 | -33.90337 | 151.21632 | 877 ft | 90 kts | 301° |
| 2026-04-21 10:15 | -33.90275 | 151.20909 | 815 ft | 89 kts | 250° |
| 2026-04-21 10:15 | -33.90569 | 151.20265 | 715 ft | 88 kts | 236° |
| 2026-04-21 10:16 | -33.90921 | 151.19684 | 655 ft | 82 kts | 233° |
| 2026-04-21 10:16 | -33.91267 | 151.19138 | 594 ft | 82 kts | 233° |
| 2026-04-21 10:16 | -33.91622 | 151.18616 | 554 ft | 79 kts | 224° |
| 2026-04-21 10:16 | -33.92106 | 151.18277 | 497 ft | 82 kts | 198° |
| 2026-04-21 10:17 | -33.92664 | 151.18222 | 409 ft | 81 kts | 173° |
| 2026-04-21 10:17 | -33.93228 | 151.18381 | 316 ft | 84 kts | 164° |
| 2026-04-21 10:17 | -33.93800 | 151.18529 | 215 ft | 84 kts | 169° |
| 2026-04-21 10:17 | -33.94357 | 151.18683 | 141 ft | 80 kts | 167° |
| 2026-04-21 10:18 | -33.94901 | 151.18823 | 61 ft | 78 kts | 169° |
| 2026-04-21 10:18 | -33.95385 | 151.18945 | 5 ft | 64 kts | 169° |
| 2026-04-21 10:18 | -33.95741 | 151.19034 | 5 ft | 44 kts | 168° |
| 2026-04-21 10:18 | -33.95924 | 151.19070 | 3 ft | 5 kts | 263° |
| 2026-04-21 10:19 | -33.95888 | 151.19035 | 4 ft | 10 kts | 324° |
| 2026-04-21 10:19 | -33.95858 | 151.19009 | 5 ft | 0 kts | 324° |